Time;durP1;ratioP1;P1;durP2;ratioP2;P2;SDS_P1;SDS_P2;PMS_P1;PMS_P2;Temp;Humidity;BMP_temperature;BMP_pressure;BME280_temperature;BME280_humidity;BME280_pressure;Samples;Min_cycle;Max_cycle;Signal;HPM_P1;HPM_P2
2021/04/24 00:02:16;;;;;;;27.17;15.73;;;;;;;2.14;74.03;100605.70;115365;1198;103057;-78
2021/04/24 00:04:43;;;;;;;33.13;16.60;;;;;;;2.12;73.81;100609.98;115383;1199;103033;-79
2021/04/24 00:07:11;;;;;;;25.40;16.05;;;;;;;2.11;74.31;100606.54;115303;1199;103137;-79
2021/04/24 00:09:40;;;;;;;25.33;15.40;;;;;;;2.09;73.77;100608.24;115362;1198;103082;-78
2021/04/24 00:12:07;;;;;;;25.05;16.03;;;;;;;2.07;73.97;100609.09;115333;1198;103088;-78
2021/04/24 00:14:34;;;;;;;28.00;15.30;;;;;;;2.04;73.63;100604.78;115321;1199;103014;-78
2021/04/24 00:17:03;;;;;;;25.10;14.85;;;;;;;2.03;74.02;100609.92;115454;1198;103030;-78
2021/04/24 00:19:30;;;;;;;28.07;15.87;;;;;;;2.00;74.26;100615.05;115434;1199;103152;-79
2021/04/24 00:21:57;;;;;;;27.40;16.13;;;;;;;1.95;74.13;100598.69;115335;1199;103032;-78
2021/04/24 00:24:24;;;;;;;26.55;15.85;;;;;;;1.93;73.73;100595.24;115305;1199;103024;-78
2021/04/24 00:26:51;;;;;;;24.43;15.43;;;;;;;1.91;73.92;100591.80;115330;1199;103124;-78
2021/04/24 00:29:18;;;;;;;27.30;15.40;;;;;;;1.88;74.04;100592.64;115463;1199;103069;-78
2021/04/24 00:31:45;;;;;;;25.30;15.70;;;;;;;1.87;73.99;100595.20;115316;1199;103082;-78
2021/04/24 00:34:13;;;;;;;26.50;15.87;;;;;;;1.83;73.41;100598.59;115364;1199;103126;-78
2021/04/24 00:36:40;;;;;;;22.90;14.20;;;;;;;1.78;73.52;100595.96;115390;1199;103097;-78
2021/04/24 00:39:07;;;;;;;31.23;17.10;;;;;;;1.77;73.94;100607.09;115285;1200;102434;-79
2021/04/24 00:41:34;;;;;;;29.20;16.90;;;;;;;1.74;73.87;100605.36;115340;1198;103031;-78
2021/04/24 00:44:03;;;;;;;29.50;16.90;;;;;;;1.72;73.39;100601.92;115341;1198;103143;-78
2021/04/24 00:46:30;;;;;;;24.20;14.27;;;;;;;1.71;73.74;100599.34;115379;1199;103158;-78
2021/04/24 00:48:57;;;;;;;23.80;14.30;;;;;;;1.68;73.76;100607.89;115323;1200;102982;-78
2021/04/24 00:51:29;;;;;;;25.97;15.13;;;;;;;1.66;73.26;100601.02;115368;1198;103070;-78
2021/04/24 00:53:56;;;;;;;25.30;15.00;;;;;;;1.63;73.02;100609.56;115283;1200;103108;-77
2021/04/24 00:56:24;;;;;;;24.40;14.07;;;;;;;1.60;73.32;100601.80;115341;1200;103117;-77
2021/04/24 00:58:51;;;;;;;25.73;14.77;;;;;;;1.57;73.09;100609.48;115366;1198;103188;-77
2021/04/24 01:01:18;;;;;;;24.57;15.00;;;;;;;1.55;73.43;100602.61;115316;1199;102364;-78
2021/04/24 01:03:46;;;;;;;27.10;15.13;;;;;;;1.53;72.86;100599.16;115602;1198;102938;-77
2021/04/24 01:06:13;;;;;;;25.73;14.90;;;;;;;1.49;73.04;100603.41;115304;1199;103028;-77
2021/04/24 01:08:41;;;;;;;26.77;15.13;;;;;;;1.49;73.08;100608.55;115277;1199;103084;-77
2021/04/24 01:11:08;;;;;;;25.17;14.70;;;;;;;1.46;73.42;100611.09;115337;1199;103027;-77
2021/04/24 01:13:36;;;;;;;23.40;13.90;;;;;;;1.44;73.29;100598.23;115346;1198;103131;-78
2021/04/24 01:16:04;;;;;;;23.35;14.08;;;;;;;1.44;72.85;100605.09;115309;1198;103137;-78
2021/04/24 01:18:31;;;;;;;23.03;13.67;;;;;;;1.43;72.36;100599.05;115558;1199;102902;-77
2021/04/24 01:20:59;;;;;;;26.30;14.87;;;;;;;1.41;72.33;100597.31;115617;1199;103114;-77
2021/04/24 01:23:26;;;;;;;21.93;13.50;;;;;;;1.40;72.26;100596.45;115324;1200;103097;-77
2021/04/24 01:25:53;;;;;;;29.47;14.80;;;;;;;1.40;72.04;100600.73;115378;1199;103038;-78
2021/04/24 01:28:20;;;;;;;28.37;13.83;;;;;;;1.39;72.30;100601.58;115613;1199;103030;-78
2021/04/24 01:30:48;;;;;;;25.73;14.27;;;;;;;1.36;72.40;100598.98;115324;1198;103114;-78
2021/04/24 01:33:15;;;;;;;25.00;13.90;;;;;;;1.35;72.51;100595.55;115318;1200;102998;-78
2021/04/24 01:35:44;;;;;;;24.37;14.17;;;;;;;1.34;71.76;100596.40;115318;1199;103131;-78
2021/04/24 01:38:12;;;;;;;27.30;14.90;;;;;;;1.33;71.82;100596.39;115306;1199;103104;-78
2021/04/24 01:40:40;;;;;;;26.03;13.87;;;;;;;1.31;71.62;100600.65;115412;1200;103131;-78
2021/04/24 01:43:08;;;;;;;25.53;13.73;;;;;;;1.26;71.34;100597.14;115353;1199;103126;-78
2021/04/24 01:45:35;;;;;;;22.60;13.30;;;;;;;1.23;71.55;100594.55;115358;1199;103056;-79
2021/04/24 01:48:06;;;;;;;27.23;12.50;;;;;;;1.21;71.75;100597.09;115404;1199;102973;-80
2021/04/24 01:50:37;;;;;;;23.60;13.00;;;;;;;1.19;71.46;100591.95;115680;1198;103040;-79
2021/04/24 01:53:07;;;;;;;24.47;13.67;;;;;;;1.15;71.06;100592.77;115355;1199;103192;-79
2021/04/24 01:55:38;;;;;;;25.93;13.60;;;;;;;1.12;70.97;100595.30;115326;1199;102848;-78
2021/04/24 01:58:08;;;;;;;23.10;12.30;;;;;;;1.11;71.43;100596.15;115353;1198;103461;-79
2021/04/24 02:00:51;;;;;;;24.80;12.83;;;;;;;1.10;71.51;100593.56;115374;1199;103070;-78
2021/04/24 02:03:19;;;;;;;25.30;13.43;;;;;;;1.05;71.10;100593.48;115379;1200;103022;-80
2021/04/24 02:05:48;;;;;;;20.70;11.47;;;;;;;1.03;70.82;100596.89;115341;1199;103509;-79
2021/04/24 02:08:19;;;;;;;25.27;12.73;;;;;;;1.02;70.45;100590.89;115379;1199;103133;-79
2021/04/24 02:10:51;;;;;;;21.20;11.90;;;;;;;1.00;70.26;100587.44;115342;1198;103016;-79
2021/04/24 02:13:23;;;;;;;23.10;12.40;;;;;;;0.98;70.43;100588.27;115370;1198;103111;-78
2021/04/24 02:15:50;;;;;;;24.83;12.40;;;;;;;0.95;70.52;100583.97;115412;1199;103035;-78
2021/04/24 02:18:18;;;;;;;20.93;11.43;;;;;;;0.95;70.36;100586.53;115490;1199;102989;-79
2021/04/24 02:20:46;;;;;;;24.03;12.57;;;;;;;0.94;70.38;100592.52;115609;1199;103124;-77
2021/04/24 02:23:15;;;;;;;21.35;11.85;;;;;;;0.92;70.34;100590.78;115344;1199;103030;-78
2021/04/24 02:25:44;;;;;;;23.35;12.90;;;;;;;0.90;69.75;100593.33;115374;1199;103033;-78
2021/04/24 02:28:11;;;;;;;19.37;11.23;;;;;;;0.89;69.98;100594.14;115338;1199;103066;-79
2021/04/24 02:30:39;;;;;;;21.17;12.10;;;;;;;0.84;69.75;100595.80;115376;1199;103083;-79
2021/04/24 02:33:07;;;;;;;20.07;10.57;;;;;;;0.83;70.45;100600.07;115327;1199;103264;-78
2021/04/24 02:35:39;;;;;;;20.50;11.60;;;;;;;0.81;70.34;100604.33;115362;1199;103080;-78
2021/04/24 02:38:06;;;;;;;19.73;11.37;;;;;;;0.80;69.94;100604.31;115513;1199;103060;-78
2021/04/24 02:40:34;;;;;;;21.03;11.73;;;;;;;0.79;69.40;100608.58;115369;1199;102964;-78
2021/04/24 02:43:01;;;;;;;21.90;11.18;;;;;;;0.75;69.70;100600.83;115413;1199;103112;-78
2021/04/24 02:45:28;;;;;;;18.57;10.60;;;;;;;0.73;69.24;100602.52;115317;1197;103014;-79
2021/04/24 02:47:55;;;;;;;19.60;11.10;;;;;;;0.72;69.62;100606.79;115376;1198;103050;-79
2021/04/24 02:50:22;;;;;;;16.87;10.20;;;;;;;0.72;69.66;100601.66;115372;1200;103030;-78
2021/04/24 02:52:50;;;;;;;18.87;10.53;;;;;;;0.72;69.67;100595.63;115412;1198;102973;-77
2021/04/24 02:55:18;;;;;;;18.27;10.23;;;;;;;0.70;69.70;100589.61;115335;1200;102954;-78
2021/04/24 02:57:45;;;;;;;16.77;9.97;;;;;;;0.69;69.60;100593.02;115299;1198;103506;-78
2021/04/24 03:00:16;;;;;;;17.60;9.77;;;;;;;0.68;68.86;100591.30;115324;1198;103118;-78
2021/04/24 03:02:43;;;;;;;18.50;9.90;;;;;;;0.67;68.70;100587.88;115403;1199;102996;-78
2021/04/24 03:05:14;;;;;;;22.13;10.60;;;;;;;0.67;68.73;100593.01;115598;1199;103040;-78
2021/04/24 03:07:42;;;;;;;17.55;10.20;;;;;;;0.67;68.55;100592.14;115425;1200;103059;-78
2021/04/24 03:10:11;;;;;;;20.03;9.90;;;;;;;0.67;68.84;100592.14;115411;1199;103064;-78
2021/04/24 03:12:39;;;;;;;18.73;10.00;;;;;;;0.65;68.99;100586.13;115411;1199;103150;-78
2021/04/24 03:15:07;;;;;;;16.53;9.37;;;;;;;0.64;68.47;100594.67;115307;1197;104756;-78
2021/04/24 03:17:34;;;;;;;17.03;9.17;;;;;;;0.62;69.21;100593.80;115449;1199;103015;-78
2021/04/24 03:20:03;;;;;;;17.17;10.13;;;;;;;0.61;68.29;100592.94;115600;1200;103249;-78
2021/04/24 03:22:32;;;;;;;16.60;9.80;;;;;;;0.62;68.95;100598.93;115256;1199;103108;-78
2021/04/24 03:24:59;;;;;;;19.60;9.83;;;;;;;0.63;68.58;100600.66;115354;1199;103118;-78
2021/04/24 03:27:26;;;;;;;18.47;9.43;;;;;;;0.63;68.35;100600.66;115304;1200;103519;-77
2021/04/24 03:29:53;;;;;;;18.33;9.13;;;;;;;0.62;68.41;100601.50;115317;1199;103041;-78
2021/04/24 03:32:20;;;;;;;14.37;8.77;;;;;;;0.61;68.74;100598.06;115365;1199;103118;-78
2021/04/24 03:34:47;;;;;;;19.75;9.80;;;;;;;0.60;68.63;100601.48;115385;1197;103182;-78
2021/04/24 03:37:14;;;;;;;16.13;8.70;;;;;;;0.62;67.88;100598.93;115337;1199;103034;-77
2021/04/24 03:39:42;;;;;;;16.10;9.23;;;;;;;0.64;68.38;100597.24;115393;1199;103028;-78
2021/04/24 03:42:11;;;;;;;16.30;9.23;;;;;;;0.64;68.39;100602.38;115541;1200;103101;-78
2021/04/24 03:44:38;;;;;;;15.30;9.10;;;;;;;0.67;68.48;100604.98;115533;1199;102836;-78
2021/04/24 03:47:05;;;;;;;19.17;9.93;;;;;;;0.69;67.79;100600.72;115351;1198;103053;-78
2021/04/24 03:49:32;;;;;;;19.07;9.77;;;;;;;0.72;68.40;100605.89;115343;1200;103028;-79
2021/04/24 03:51:59;;;;;;;18.67;9.53;;;;;;;0.74;68.16;100614.51;115360;1197;103040;-77
2021/04/24 03:54:26;;;;;;;17.17;9.53;;;;;;;0.76;67.47;100612.82;115354;1199;103188;-77
2021/04/24 03:56:53;;;;;;;19.37;9.70;;;;;;;0.77;68.00;100614.55;115313;1200;103123;-78
2021/04/24 03:59:20;;;;;;;17.53;9.50;;;;;;;0.82;67.39;100618.03;115550;1200;103598;-78
2021/04/24 04:01:48;;;;;;;19.43;9.55;;;;;;;0.86;68.05;100612.08;115430;1198;102992;-78
2021/04/24 04:04:15;;;;;;;20.97;9.83;;;;;;;0.90;67.46;100619.01;115342;1199;103101;-77
2021/04/24 04:06:42;;;;;;;17.97;9.10;;;;;;;0.94;67.42;100613.06;115290;1199;103082;-77
2021/04/24 04:09:09;;;;;;;17.70;9.67;;;;;;;0.99;67.60;100621.67;115356;1198;103114;-77
2021/04/24 04:11:36;;;;;;;19.63;9.90;;;;;;;1.04;67.71;100608.88;115621;1199;103072;-78
2021/04/24 04:14:04;;;;;;;18.85;9.90;;;;;;;1.08;67.59;100610.67;115323;1198;102976;-78
2021/04/24 04:16:31;;;;;;;18.53;10.00;;;;;;;1.12;66.99;100605.58;115342;1199;103143;-78
2021/04/24 04:18:58;;;;;;;20.90;9.63;;;;;;;1.18;67.01;100612.48;115325;1199;102989;-78
2021/04/24 04:21:25;;;;;;;17.43;9.50;;;;;;;1.23;67.33;100612.53;115407;1200;103082;-78
2021/04/24 04:23:52;;;;;;;18.00;9.13;;;;;;;1.31;66.76;100608.36;115331;1199;102996;-77
2021/04/24 04:26:19;;;;;;;14.77;9.00;;;;;;;1.38;66.43;100612.70;115332;1198;103021;-78
2021/04/24 04:28:52;;;;;;;20.60;9.50;;;;;;;1.49;66.77;100608.55;115430;1198;103066;-77
2021/04/24 04:31:19;;;;;;;17.70;9.77;;;;;;;1.60;66.86;100609.50;115330;1199;103011;-77
2021/04/24 04:33:47;;;;;;;17.27;9.17;;;;;;;1.75;66.65;100607.09;115337;1200;103040;-77
2021/04/24 04:36:15;;;;;;;16.05;8.80;;;;;;;2.39;66.26;100617.91;115360;1199;103688;-77
2021/04/24 04:38:42;;;;;;;19.30;9.40;;;;;;;4.22;65.58;100641.75;115354;1199;103146;-79
2021/04/24 04:41:09;;;;;;;15.13;9.00;;;;;;;6.24;63.35;100615.91;115292;1199;103009;-78
2021/04/24 04:43:36;;;;;;;15.33;8.57;;;;;;;7.96;60.52;100610.38;115589;1197;103070;-79
2021/04/24 04:46:03;;;;;;;16.30;8.20;;;;;;;9.76;57.85;100608.67;115331;1197;104265;-79
2021/04/24 04:48:30;;;;;;;15.23;8.13;;;;;;;11.21;54.95;100600.55;115370;1200;103187;-78
2021/04/24 04:50:58;;;;;;;16.40;8.30;;;;;;;12.78;53.02;100586.79;115378;1199;103028;-78
2021/04/24 04:53:25;;;;;;;13.53;7.43;;;;;;;14.24;50.95;100588.98;115570;1199;103027;-78
2021/04/24 04:56:12;;;;;;;14.60;7.80;;;;;;;15.53;46.99;100579.73;115595;1199;103429;-78
2021/04/24 04:58:40;;;;;;;13.50;8.23;;;;;;;16.80;45.69;100573.45;115332;1199;103037;-78
2021/04/24 05:01:12;;;;;;;11.10;7.53;;;;;;;17.95;43.72;100563.56;115328;1198;103021;-78
2021/04/24 05:03:39;;;;;;;11.67;7.03;;;;;;;18.90;41.78;100573.81;115272;1199;103184;-78
2021/04/24 05:06:07;;;;;;;11.60;7.00;;;;;;;19.55;39.39;100567.03;115346;1200;103153;-78
2021/04/24 05:08:36;;;;;;;12.17;7.07;;;;;;;20.43;38.57;100572.73;115304;1200;103008;-78
2021/04/24 05:11:04;;;;;;;10.63;6.67;;;;;;;21.11;35.87;100567.11;115623;1198;103634;-78
2021/04/24 05:13:32;;;;;;;10.67;6.47;;;;;;;21.68;34.66;100570.05;115329;1199;103092;-78
2021/04/24 05:16:00;;;;;;;11.77;6.80;;;;;;;22.36;34.45;100567.72;115657;1199;101489;-78
2021/04/24 05:18:27;;;;;;;12.63;7.23;;;;;;;23.09;33.42;100572.66;115349;1199;102976;-79
2021/04/24 05:20:55;;;;;;;10.13;6.53;;;;;;;23.76;32.06;100570.78;115527;1199;103120;-78
2021/04/24 05:23:22;;;;;;;13.27;6.93;;;;;;;24.23;30.91;100560.63;115274;1199;103133;-77
2021/04/24 05:25:50;;;;;;;11.20;6.80;;;;;;;24.66;30.07;100557.88;115348;1200;103008;-78
2021/04/24 05:28:17;;;;;;;12.53;7.57;;;;;;;25.30;29.27;100568.27;115270;1200;103145;-78
2021/04/24 05:30:44;;;;;;;12.50;7.03;;;;;;;25.74;28.37;100554.63;115311;1199;103160;-78
2021/04/24 05:33:11;;;;;;;12.23;7.63;;;;;;;26.27;27.12;100560.39;115325;1200;103011;-78
2021/04/24 05:35:38;;;;;;;11.87;6.83;;;;;;;26.57;26.74;100562.08;115293;1200;103117;-78
2021/04/24 05:38:05;;;;;;;9.60;6.30;;;;;;;26.89;25.87;100552.80;115477;1199;103120;-78
2021/04/24 05:40:33;;;;;;;8.63;6.20;;;;;;;27.38;25.39;100554.28;115378;1199;102983;-77
2021/04/24 05:43:00;;;;;;;9.43;6.13;;;;;;;27.58;24.54;100550.48;115287;1199;103005;-78
2021/04/24 05:45:27;;;;;;;10.20;6.37;;;;;;;27.83;23.88;100553.43;115551;1199;102999;-78
2021/04/24 05:47:54;;;;;;;8.63;6.53;;;;;;;28.23;23.38;100547.60;115318;1200;103226;-79
2021/04/24 05:50:23;;;;;;;8.07;5.57;;;;;;;28.46;21.77;100545.28;115328;1199;103019;-79
2021/04/24 05:52:55;;;;;;;10.10;5.83;;;;;;;28.34;22.41;100547.36;115370;1199;101761;-78
2021/04/24 05:55:22;;;;;;;11.70;6.30;;;;;;;28.83;22.42;100548.52;115373;1199;103809;-79
2021/04/24 05:57:50;;;;;;;8.07;6.33;;;;;;;29.45;21.70;100562.62;115307;1197;103031;-78
2021/04/24 06:00:19;;;;;;;10.47;5.93;;;;;;;29.74;21.20;100559.47;115251;1199;103049;-78
2021/04/24 06:02:48;;;;;;;9.70;6.37;;;;;;;30.13;20.99;100568.78;115226;1199;103248;-79
2021/04/24 06:05:16;;;;;;;6.97;5.60;;;;;;;30.51;20.10;100562.69;115320;1200;103217;-79
2021/04/24 06:07:43;;;;;;;9.47;5.80;;;;;;;30.53;19.61;100571.47;115287;1199;103079;-79
2021/04/24 06:10:15;;;;;;;8.17;5.93;;;;;;;30.77;19.77;100578.67;115580;1198;103060;-79
2021/04/24 06:12:44;;;;;;;8.73;5.93;;;;;;;30.69;19.25;100570.60;115587;1199;103094;-79
2021/04/24 06:15:12;;;;;;;7.60;5.43;;;;;;;30.56;17.92;100573.81;115334;1198;102916;-78
2021/04/24 06:17:41;;;;;;;9.77;6.53;;;;;;;30.45;18.86;100571.45;115375;1197;103117;-78
2021/04/24 06:20:11;;;;;;;8.27;5.53;;;;;;;30.25;18.01;100573.66;115346;1200;102985;-78
2021/04/24 06:22:39;;;;;;;9.57;6.00;;;;;;;30.42;18.57;100576.34;115322;1199;103009;-78
2021/04/24 06:25:10;;;;;;;7.37;5.60;;;;;;;30.59;17.83;100576.16;115309;1199;103050;-79
2021/04/24 06:27:37;;;;;;;8.23;5.20;;;;;;;30.56;17.44;100576.50;115312;1198;102813;-79
2021/04/24 06:30:06;;;;;;;9.13;6.20;;;;;;;30.55;17.94;100580.20;115324;1199;103056;-79
2021/04/24 06:32:35;;;;;;;9.00;6.20;;;;;;;30.68;18.02;100583.22;115311;1199;103012;-79
2021/04/24 06:35:04;;;;;;;7.83;5.90;;;;;;;30.98;17.82;100586.19;115494;1199;103111;-79
2021/04/24 06:37:31;;;;;;;7.53;5.43;;;;;;;31.04;17.51;100580.09;115375;1199;102999;-79
2021/04/24 06:39:58;;;;;;;7.23;5.13;;;;;;;31.05;17.42;100576.39;115538;1199;103040;-79
2021/04/24 06:42:25;;;;;;;8.17;5.17;;;;;;;31.51;17.03;100571.17;115360;1199;103028;-79
2021/04/24 06:44:52;;;;;;;7.53;4.00;;;;;;;31.56;16.30;100575.00;115361;1199;103040;-79
2021/04/24 06:47:19;;;;;;;7.13;4.70;;;;;;;31.40;16.76;100568.86;115354;1199;103099;-79
2021/04/24 06:49:47;;;;;;;6.95;4.68;;;;;;;31.67;16.51;100565.68;115316;1199;101852;-79
2021/04/24 06:52:14;;;;;;;5.63;4.27;;;;;;;31.79;16.40;100566.16;115516;1199;102046;-79
2021/04/24 06:54:41;;;;;;;6.07;3.90;;;;;;;31.95;16.11;100562.47;115339;1199;103065;-79
2021/04/24 06:57:08;;;;;;;10.53;4.33;;;;;;;32.22;16.05;100563.78;115377;1199;103024;-78
2021/04/24 06:59:36;;;;;;;8.40;3.80;;;;;;;32.34;15.98;100563.20;115280;1198;103018;-80
2021/04/24 07:02:04;;;;;;;5.07;3.57;;;;;;;32.46;15.01;100558.18;115460;1199;103011;-79
2021/04/24 07:04:31;;;;;;;6.27;3.80;;;;;;;32.12;14.75;100555.92;115557;1198;103027;-80
2021/04/24 07:06:58;;;;;;;7.17;4.93;;;;;;;31.81;14.98;100567.64;115370;1200;101955;-79
2021/04/24 07:09:25;;;;;;;6.97;3.80;;;;;;;31.69;15.58;100569.03;115289;1197;103027;-78
2021/04/24 07:11:52;;;;;;;5.50;3.57;;;;;;;31.72;15.08;100563.31;115325;1199;100625;-79
2021/04/24 07:14:20;;;;;;;5.40;3.17;;;;;;;31.70;15.64;100565.31;115296;1199;103076;-79
2021/04/24 07:16:47;;;;;;;4.67;3.20;;;;;;;31.86;15.21;100567.10;115577;1199;103133;-79
2021/04/24 07:19:14;;;;;;;5.40;3.43;;;;;;;31.55;14.21;100556.31;115340;1199;103100;-79
2021/04/24 07:21:41;;;;;;;6.57;3.20;;;;;;;31.39;15.24;100562.63;115330;1199;101256;-79
2021/04/24 07:24:09;;;;;;;4.43;3.50;;;;;;;31.12;14.07;100555.84;115592;1198;103130;-79
2021/04/24 07:26:37;;;;;;;5.67;3.27;;;;;;;31.17;15.15;100555.30;115309;1200;103120;-80
2021/04/24 07:29:05;;;;;;;5.40;3.00;;;;;;;31.37;15.17;100566.52;115369;1198;102992;-79
2021/04/24 07:31:33;;;;;;;6.07;2.77;;;;;;;31.15;14.89;100558.17;115297;1199;103028;-79
2021/04/24 07:34:01;;;;;;;3.87;2.93;;;;;;;31.08;14.67;100565.28;115423;1199;103011;-79
2021/04/24 07:36:30;;;;;;;3.87;3.10;;;;;;;31.09;14.98;100560.73;115362;1199;103159;-79
2021/04/24 07:38:57;;;;;;;4.43;2.80;;;;;;;31.17;14.64;100561.56;115436;1199;103027;-79
2021/04/24 07:41:29;;;;;;;4.20;2.80;;;;;;;31.18;14.55;100551.63;115326;1199;103072;-79
2021/04/24 07:43:56;;;;;;;5.45;3.10;;;;;;;30.99;14.58;100555.55;115363;1200;102958;-79
2021/04/24 07:46:24;;;;;;;4.67;3.10;;;;;;;30.71;15.05;100556.99;115375;1199;103149;-79
2021/04/24 07:48:51;;;;;;;6.80;3.80;;;;;;;30.63;15.11;100555.98;115436;1199;101365;-79
2021/04/24 07:51:19;;;;;;;5.13;3.10;;;;;;;30.46;14.68;100553.45;115381;1199;103210;-79
2021/04/24 07:53:46;;;;;;;5.37;3.07;;;;;;;30.52;15.00;100559.02;115337;1199;103066;-79
2021/04/24 07:56:14;;;;;;;3.87;2.97;;;;;;;30.61;15.25;100560.70;115325;1199;103095;-79
2021/04/24 07:58:41;;;;;;;5.05;3.08;;;;;;;30.56;14.86;100563.05;115358;1199;103033;-79
2021/04/24 08:01:08;;;;;;;4.10;2.77;;;;;;;30.47;14.68;100555.98;115315;1199;102976;-78
2021/04/24 08:03:36;;;;;;;5.77;3.80;;;;;;;30.32;14.87;100563.05;115346;1199;103156;-79
2021/04/24 08:06:04;;;;;;;4.53;3.33;;;;;;;29.75;14.82;100563.00;115277;1198;102999;-79
2021/04/24 08:08:31;;;;;;;3.97;3.00;;;;;;;29.45;14.89;100570.68;115328;1199;103024;-79
2021/04/24 08:10:59;;;;;;;4.97;3.20;;;;;;;29.42;15.33;100562.89;115571;1198;103054;-78
2021/04/24 08:13:26;;;;;;;4.37;3.13;;;;;;;29.30;16.18;100566.90;115225;1199;103018;-78
2021/04/24 08:15:53;;;;;;;5.97;3.43;;;;;;;29.36;15.73;100566.23;115279;1198;102980;-80
2021/04/24 08:18:20;;;;;;;6.47;3.60;;;;;;;29.53;15.93;100569.01;115328;1199;102979;-79
2021/04/24 08:20:47;;;;;;;4.40;2.97;;;;;;;28.92;15.65;100575.46;115313;1199;103240;-80
2021/04/24 08:23:15;;;;;;;4.73;3.57;;;;;;;27.74;16.59;100573.13;115291;1199;103075;-80
2021/04/24 08:25:42;;;;;;;5.93;3.57;;;;;;;27.36;16.82;100566.98;115354;1199;103152;-79
2021/04/24 08:28:09;;;;;;;5.20;3.50;;;;;;;27.07;17.47;100572.47;115290;1199;103413;-78
2021/04/24 08:30:36;;;;;;;5.27;3.30;;;;;;;27.19;17.94;100565.95;115561;1199;103152;-79
2021/04/24 08:33:05;;;;;;;4.83;2.98;;;;;;;27.09;17.23;100574.02;115307;1199;103085;-79
2021/04/24 08:35:32;;;;;;;4.73;2.83;;;;;;;26.75;17.65;100559.45;115360;1199;103248;-78
2021/04/24 08:38:00;;;;;;;5.10;3.27;;;;;;;25.24;18.11;100578.66;115308;1198;103066;-78
2021/04/24 08:40:27;;;;;;;6.47;3.10;;;;;;;23.94;18.95;100580.89;115323;1197;103088;-79
2021/04/24 08:42:56;;;;;;;7.30;3.25;;;;;;;23.97;19.84;100576.15;115331;1200;103132;-78
2021/04/24 08:45:24;;;;;;;4.60;2.93;;;;;;;24.10;19.46;100560.84;115295;1199;103679;-79
2021/04/24 08:47:53;;;;;;;4.50;2.90;;;;;;;24.31;19.40;100568.03;115299;1199;103072;-78
2021/04/24 08:50:28;;;;;;;3.20;2.50;;;;;;;23.76;19.64;100562.78;115681;1199;102979;-79
2021/04/24 08:52:58;;;;;;;5.70;3.10;;;;;;;23.54;20.00;100567.30;115328;1200;103047;-79
2021/04/24 08:55:29;;;;;;;4.97;2.77;;;;;;;23.59;20.26;100557.99;115309;1199;103060;-79
2021/04/24 08:57:57;;;;;;;5.37;2.50;;;;;;;24.11;19.29;100559.86;115435;1199;102015;-79
2021/04/24 09:00:27;;;;;;;5.07;2.40;;;;;;;23.48;18.71;100571.28;115445;1199;103171;-79
2021/04/24 09:02:56;;;;;;;3.93;2.40;;;;;;;23.36;20.01;100557.17;115316;1198;101968;-79
2021/04/24 09:05:25;;;;;;;6.90;3.60;;;;;;;23.34;20.26;100569.77;115321;1199;103098;-79
2021/04/24 09:08:05;;;;;;;4.47;2.57;;;;;;;22.46;20.17;100555.43;115577;1199;103114;-78
2021/04/24 09:10:45;;;;;;;3.97;2.50;;;;;;;21.49;21.02;100560.89;115514;1199;103021;-79
2021/04/24 09:13:24;;;;;;;4.70;2.60;;;;;;;21.56;21.51;100559.50;115544;1199;103190;-79
2021/04/24 09:15:53;;;;;;;5.37;2.53;;;;;;;21.74;21.31;100565.27;115253;1199;103033;-78
2021/04/24 09:18:22;;;;;;;5.93;2.77;;;;;;;22.15;22.01;100556.91;115466;1199;103442;-79
2021/04/24 09:20:55;;;;;;;3.63;2.47;;;;;;;22.33;21.21;100557.32;115370;1199;101437;-79
2021/04/24 09:23:34;;;;;;;5.00;2.77;;;;;;;21.65;21.07;100561.47;115559;1199;100839;-79
2021/04/24 09:26:04;;;;;;;5.97;2.90;;;;;;;20.32;21.81;100564.66;115397;1198;103165;-79
2021/04/24 09:28:34;;;;;;;5.40;3.40;;;;;;;19.13;22.57;100565.30;115330;1198;103535;-78
2021/04/24 09:31:10;;;;;;;4.83;2.97;;;;;;;18.33;23.39;100573.70;115490;1199;103116;-78
2021/04/24 09:33:38;;;;;;;3.67;2.37;;;;;;;17.80;23.83;100575.87;115367;1199;103030;-79
2021/04/24 09:36:08;;;;;;;5.10;2.90;;;;;;;17.40;24.24;100577.19;115317;1199;103098;-78
2021/04/24 09:38:38;;;;;;;5.03;2.77;;;;;;;16.76;25.13;100567.50;115255;1197;103521;-77
2021/04/24 09:41:28;;;;;;;6.33;3.23;;;;;;;16.12;25.17;100577.79;115539;1199;103185;-79
2021/04/24 09:44:07;;;;;;;5.13;2.77;;;;;;;15.75;26.21;100570.84;115330;1200;103624;-78
2021/04/24 09:46:48;;;;;;;3.77;2.70;;;;;;;16.01;26.60;100570.45;115392;1198;103471;-78
2021/04/24 09:49:28;;;;;;;5.27;2.80;;;;;;;16.88;26.07;100553.69;115305;1197;102089;-79
2021/04/24 09:52:09;;;;;;;4.83;2.27;;;;;;;17.30;24.43;100561.98;115443;1198;103059;-79
2021/04/24 09:54:47;;;;;;;3.80;2.30;;;;;;;17.44;24.71;100552.38;115588;1200;103079;-79
2021/04/24 09:57:22;;;;;;;5.20;2.50;;;;;;;17.67;24.76;100558.14;115353;1197;103293;-79
2021/04/24 10:00:07;;;;;;;5.73;2.30;;;;;;;17.64;24.01;100548.63;115373;1199;101947;-79
2021/04/24 10:02:45;;;;;;;5.90;2.53;;;;;;;18.20;24.18;100551.59;115467;1199;102993;-79
2021/04/24 10:05:16;;;;;;;4.17;2.20;;;;;;;18.88;23.41;100544.84;115326;1198;103175;-79
2021/04/24 10:07:44;;;;;;;3.63;2.10;;;;;;;19.31;23.27;100532.40;115553;1200;103097;-79
2021/04/24 10:10:29;;;;;;;3.05;2.25;;;;;;;19.72;23.38;100546.57;115580;1199;103118;-79
2021/04/24 10:12:59;;;;;;;5.00;2.27;;;;;;;20.22;22.71;100535.27;115649;1197;103024;-79
2021/04/24 10:15:39;;;;;;;3.77;2.27;;;;;;;19.50;21.63;100539.16;115361;1198;103047;-79
2021/04/24 10:18:11;;;;;;;3.57;2.20;;;;;;;18.55;22.22;100539.78;115558;1199;103121;-79
2021/04/24 10:20:42;;;;;;;3.55;2.40;;;;;;;17.85;22.37;100546.58;115618;1199;103437;-79
2021/04/24 10:23:12;;;;;;;3.57;2.67;;;;;;;17.24;23.55;100538.61;115382;1198;103188;-79
2021/04/24 10:25:41;;;;;;;6.47;2.90;;;;;;;16.75;24.14;100542.09;115394;1198;103108;-79
2021/04/24 10:28:08;;;;;;;4.70;3.00;;;;;;;17.10;25.06;100532.30;115630;1197;103044;-79
2021/04/24 10:30:35;;;;;;;3.63;2.30;;;;;;;17.78;25.08;100529.41;115320;1198;103140;-79
2021/04/24 10:33:04;;;;;;;2.90;2.03;;;;;;;18.39;24.28;100524.00;115347;1200;103147;-79
2021/04/24 10:35:32;;;;;;;3.37;2.13;;;;;;;18.38;23.57;100518.82;115333;1200;102966;-79
2021/04/24 10:38:02;;;;;;;3.27;2.30;;;;;;;17.97;23.09;100524.77;115367;1198;103050;-80
2021/04/24 10:40:30;;;;;;;3.73;2.00;;;;;;;17.37;23.21;100529.91;115371;1199;103074;-78
2021/04/24 10:42:59;;;;;;;3.00;2.20;;;;;;;16.71;23.25;100532.66;115573;1199;103099;-79
2021/04/24 10:45:28;;;;;;;3.30;2.00;;;;;;;16.10;24.10;100532.29;115404;1199;103018;-79
2021/04/24 10:47:56;;;;;;;2.47;1.70;;;;;;;15.45;24.06;100544.23;115638;1199;101551;-79
2021/04/24 10:50:40;;;;;;;4.47;2.03;;;;;;;14.96;24.11;100547.36;115411;1198;103031;-78
2021/04/24 10:53:20;;;;;;;3.73;1.97;;;;;;;14.61;24.98;100542.83;115406;1199;101878;-80
2021/04/24 10:55:48;;;;;;;3.77;2.37;;;;;;;14.67;25.59;100532.05;115358;1199;103130;-80
2021/04/24 10:58:18;;;;;;;3.33;2.10;;;;;;;14.49;25.58;100534.56;115343;1199;102983;-79
2021/04/24 11:00:47;;;;;;;3.40;2.23;;;;;;;14.40;26.22;100529.69;115297;1199;103066;-79
2021/04/24 11:03:41;;;;;;;4.15;3.10;;;;;;;14.66;27.71;100536.44;115397;1198;103136;-80
2021/04/24 11:06:11;;;;;;;6.97;3.00;;;;;;;15.05;27.97;100540.81;115582;1198;103001;-79
2021/04/24 11:08:40;;;;;;;4.63;2.53;;;;;;;15.27;27.82;100545.95;115383;1199;103270;-79
2021/04/24 11:11:12;;;;;;;3.60;2.70;;;;;;;15.17;27.13;100539.41;115393;1198;102980;-79
2021/04/24 11:13:55;;;;;;;3.23;2.33;;;;;;;15.25;26.92;100545.14;115360;1199;103098;-80
2021/04/24 11:16:31;;;;;;;4.30;2.50;;;;;;;15.35;26.54;100549.06;115382;1197;103088;-80